sensor_id;sensor_type;location;lat;lon;timestamp;P1;durP1;ratioP1;P2;durP2;ratioP2
295;SDS011;132;48.770;9.200;2022-07-01T00:00:33;5.93;;;2.20;;
295;SDS011;132;48.770;9.200;2022-07-01T00:02:59;4.97;;;2.30;;
295;SDS011;132;48.770;9.200;2022-07-01T00:05:26;4.00;;;2.50;;
295;SDS011;132;48.770;9.200;2022-07-01T00:07:52;4.53;;;2.23;;
295;SDS011;132;48.770;9.200;2022-07-01T00:10:18;6.50;;;2.20;;
295;SDS011;132;48.770;9.200;2022-07-01T00:12:45;8.70;;;2.20;;
295;SDS011;132;48.770;9.200;2022-07-01T00:15:12;5.20;;;2.30;;
295;SDS011;132;48.770;9.200;2022-07-01T00:17:39;5.90;;;2.40;;
295;SDS011;132;48.770;9.200;2022-07-01T00:20:06;3.70;;;2.37;;
295;SDS011;132;48.770;9.200;2022-07-01T00:22:36;4.57;;;2.00;;
295;SDS011;132;48.770;9.200;2022-07-01T00:25:02;3.60;;;2.07;;
295;SDS011;132;48.770;9.200;2022-07-01T00:27:29;4.10;;;1.90;;
295;SDS011;132;48.770;9.200;2022-07-01T00:29:56;4.60;;;1.90;;
295;SDS011;132;48.770;9.200;2022-07-01T00:32:22;2.57;;;1.73;;
295;SDS011;132;48.770;9.200;2022-07-01T00:34:48;4.27;;;1.70;;
295;SDS011;132;48.770;9.200;2022-07-01T00:37:15;2.70;;;1.70;;
295;SDS011;132;48.770;9.200;2022-07-01T00:39:41;4.60;;;1.90;;
295;SDS011;132;48.770;9.200;2022-07-01T00:42:08;15.43;;;2.10;;
295;SDS011;132;48.770;9.200;2022-07-01T00:44:34;1.67;;;1.60;;
295;SDS011;132;48.770;9.200;2022-07-01T00:47:02;8.20;;;1.77;;
295;SDS011;132;48.770;9.200;2022-07-01T00:49:29;6.70;;;1.80;;
295;SDS011;132;48.770;9.200;2022-07-01T00:51:56;6.53;;;2.20;;
295;SDS011;132;48.770;9.200;2022-07-01T00:54:23;8.83;;;1.83;;
295;SDS011;132;48.770;9.200;2022-07-01T00:56:52;5.40;;;1.97;;
295;SDS011;132;48.770;9.200;2022-07-01T00:59:22;1.90;;;1.50;;
295;SDS011;132;48.770;9.200;2022-07-01T01:01:48;3.80;;;1.80;;
295;SDS011;132;48.770;9.200;2022-07-01T01:04:14;5.30;;;1.80;;
295;SDS011;132;48.770;9.200;2022-07-01T01:06:41;2.43;;;1.80;;
295;SDS011;132;48.770;9.200;2022-07-01T01:09:07;3.10;;;1.80;;
295;SDS011;132;48.770;9.200;2022-07-01T01:11:34;3.33;;;1.73;;
295;SDS011;132;48.770;9.200;2022-07-01T01:14:00;3.27;;;1.70;;
295;SDS011;132;48.770;9.200;2022-07-01T01:16:26;2.90;;;1.80;;
295;SDS011;132;48.770;9.200;2022-07-01T01:18:53;1.70;;;1.60;;
295;SDS011;132;48.770;9.200;2022-07-01T01:21:19;4.23;;;1.70;;
295;SDS011;132;48.770;9.200;2022-07-01T01:23:46;3.50;;;1.80;;
295;SDS011;132;48.770;9.200;2022-07-01T01:26:20;1.90;;;1.80;;
295;SDS011;132;48.770;9.200;2022-07-01T01:28:48;2.17;;;1.70;;
295;SDS011;132;48.770;9.200;2022-07-01T01:31:14;2.77;;;2.07;;
295;SDS011;132;48.770;9.200;2022-07-01T01:33:41;3.50;;;1.83;;
295;SDS011;132;48.770;9.200;2022-07-01T01:36:08;2.70;;;1.70;;
295;SDS011;132;48.770;9.200;2022-07-01T01:38:35;2.37;;;1.80;;
295;SDS011;132;48.770;9.200;2022-07-01T01:41:02;3.93;;;1.90;;
295;SDS011;132;48.770;9.200;2022-07-01T01:43:29;1.90;;;1.80;;
295;SDS011;132;48.770;9.200;2022-07-01T01:45:56;4.27;;;1.80;;
295;SDS011;132;48.770;9.200;2022-07-01T01:48:22;2.07;;;1.83;;
295;SDS011;132;48.770;9.200;2022-07-01T01:50:49;5.70;;;1.80;;
295;SDS011;132;48.770;9.200;2022-07-01T01:53:15;2.63;;;1.90;;
295;SDS011;132;48.770;9.200;2022-07-01T01:55:41;2.07;;;1.93;;
295;SDS011;132;48.770;9.200;2022-07-01T01:58:08;2.33;;;1.90;;
295;SDS011;132;48.770;9.200;2022-07-01T02:00:38;5.40;;;1.80;;
295;SDS011;132;48.770;9.200;2022-07-01T02:03:07;5.40;;;1.93;;
295;SDS011;132;48.770;9.200;2022-07-01T02:05:34;4.60;;;2.10;;
295;SDS011;132;48.770;9.200;2022-07-01T02:08:07;3.37;;;1.90;;
295;SDS011;132;48.770;9.200;2022-07-01T02:10:34;4.67;;;2.20;;
295;SDS011;132;48.770;9.200;2022-07-01T02:13:01;2.73;;;1.90;;
295;SDS011;132;48.770;9.200;2022-07-01T02:15:27;3.10;;;2.20;;
295;SDS011;132;48.770;9.200;2022-07-01T02:17:53;5.60;;;2.00;;
295;SDS011;132;48.770;9.200;2022-07-01T02:20:22;2.33;;;1.80;;
295;SDS011;132;48.770;9.200;2022-07-01T02:22:48;4.03;;;2.13;;
295;SDS011;132;48.770;9.200;2022-07-01T02:25:15;3.03;;;2.00;;
295;SDS011;132;48.770;9.200;2022-07-01T02:27:41;4.53;;;2.20;;
295;SDS011;132;48.770;9.200;2022-07-01T02:30:08;3.90;;;2.00;;
295;SDS011;132;48.770;9.200;2022-07-01T02:32:35;3.10;;;2.07;;
295;SDS011;132;48.770;9.200;2022-07-01T02:35:01;2.50;;;2.10;;
295;SDS011;132;48.770;9.200;2022-07-01T02:37:28;13.33;;;2.40;;
295;SDS011;132;48.770;9.200;2022-07-01T02:39:54;2.20;;;1.90;;
295;SDS011;132;48.770;9.200;2022-07-01T02:42:21;4.70;;;2.00;;
295;SDS011;132;48.770;9.200;2022-07-01T02:44:57;3.53;;;2.07;;
295;SDS011;132;48.770;9.200;2022-07-01T02:47:23;2.80;;;2.00;;
295;SDS011;132;48.770;9.200;2022-07-01T02:49:50;2.33;;;1.80;;
295;SDS011;132;48.770;9.200;2022-07-01T02:52:21;3.07;;;2.10;;
295;SDS011;132;48.770;9.200;2022-07-01T02:54:47;5.57;;;2.10;;
295;SDS011;132;48.770;9.200;2022-07-01T02:57:13;3.20;;;2.20;;
295;SDS011;132;48.770;9.200;2022-07-01T02:59:40;5.27;;;2.10;;
295;SDS011;132;48.770;9.200;2022-07-01T03:02:06;4.53;;;2.83;;
295;SDS011;132;48.770;9.200;2022-07-01T03:04:33;4.50;;;2.90;;
295;SDS011;132;48.770;9.200;2022-07-01T03:06:59;6.40;;;2.80;;
295;SDS011;132;48.770;9.200;2022-07-01T03:09:26;5.93;;;2.80;;
295;SDS011;132;48.770;9.200;2022-07-01T03:11:52;3.67;;;2.63;;
295;SDS011;132;48.770;9.200;2022-07-01T03:14:19;4.40;;;2.80;;
295;SDS011;132;48.770;9.200;2022-07-01T03:16:46;2.93;;;2.60;;
295;SDS011;132;48.770;9.200;2022-07-01T03:19:16;3.47;;;2.60;;
295;SDS011;132;48.770;9.200;2022-07-01T03:21:42;3.80;;;2.60;;
295;SDS011;132;48.770;9.200;2022-07-01T03:24:09;4.50;;;2.90;;
295;SDS011;132;48.770;9.200;2022-07-01T03:26:35;3.40;;;2.53;;
295;SDS011;132;48.770;9.200;2022-07-01T03:29:02;3.70;;;2.47;;
295;SDS011;132;48.770;9.200;2022-07-01T03:31:28;3.40;;;2.40;;
295;SDS011;132;48.770;9.200;2022-07-01T03:33:55;2.90;;;2.40;;
295;SDS011;132;48.770;9.200;2022-07-01T03:36:21;4.03;;;2.43;;
295;SDS011;132;48.770;9.200;2022-07-01T03:38:48;4.30;;;2.60;;
295;SDS011;132;48.770;9.200;2022-07-01T03:41:14;3.93;;;2.40;;
295;SDS011;132;48.770;9.200;2022-07-01T03:43:41;5.00;;;2.33;;
295;SDS011;132;48.770;9.200;2022-07-01T03:46:07;2.50;;;2.17;;
295;SDS011;132;48.770;9.200;2022-07-01T03:48:33;5.00;;;2.30;;
295;SDS011;132;48.770;9.200;2022-07-01T03:51:00;2.80;;;2.20;;
295;SDS011;132;48.770;9.200;2022-07-01T03:53:26;2.40;;;2.00;;
295;SDS011;132;48.770;9.200;2022-07-01T03:56:11;2.73;;;2.10;;
295;SDS011;132;48.770;9.200;2022-07-01T03:58:38;3.23;;;2.40;;
295;SDS011;132;48.770;9.200;2022-07-01T04:01:04;3.10;;;1.93;;
295;SDS011;132;48.770;9.200;2022-07-01T04:03:31;3.03;;;2.30;;
295;SDS011;132;48.770;9.200;2022-07-01T04:05:57;3.60;;;2.30;;
295;SDS011;132;48.770;9.200;2022-07-01T04:08:24;3.27;;;2.33;;
295;SDS011;132;48.770;9.200;2022-07-01T04:10:51;5.00;;;2.37;;
295;SDS011;132;48.770;9.200;2022-07-01T04:13:19;4.40;;;2.23;;
295;SDS011;132;48.770;9.200;2022-07-01T04:15:46;3.13;;;2.30;;
295;SDS011;132;48.770;9.200;2022-07-01T04:18:12;2.67;;;2.33;;
295;SDS011;132;48.770;9.200;2022-07-01T04:20:39;6.00;;;2.20;;
295;SDS011;132;48.770;9.200;2022-07-01T04:23:05;3.30;;;2.20;;
295;SDS011;132;48.770;9.200;2022-07-01T04:25:32;2.50;;;1.90;;
295;SDS011;132;48.770;9.200;2022-07-01T04:27:58;2.60;;;2.20;;
295;SDS011;132;48.770;9.200;2022-07-01T04:30:26;2.80;;;2.07;;
295;SDS011;132;48.770;9.200;2022-07-01T04:32:53;3.10;;;2.20;;
295;SDS011;132;48.770;9.200;2022-07-01T04:35:19;3.40;;;2.00;;
295;SDS011;132;48.770;9.200;2022-07-01T04:37:46;2.20;;;2.00;;
295;SDS011;132;48.770;9.200;2022-07-01T04:40:12;7.00;;;2.20;;
295;SDS011;132;48.770;9.200;2022-07-01T04:42:38;2.13;;;2.00;;
295;SDS011;132;48.770;9.200;2022-07-01T04:45:05;2.27;;;1.80;;
295;SDS011;132;48.770;9.200;2022-07-01T04:47:32;5.00;;;2.00;;
295;SDS011;132;48.770;9.200;2022-07-01T04:49:58;3.20;;;2.27;;
295;SDS011;132;48.770;9.200;2022-07-01T04:52:27;6.07;;;2.40;;
295;SDS011;132;48.770;9.200;2022-07-01T04:54:53;2.67;;;2.50;;
295;SDS011;132;48.770;9.200;2022-07-01T04:57:20;2.40;;;1.97;;
295;SDS011;132;48.770;9.200;2022-07-01T04:59:47;3.03;;;2.00;;
295;SDS011;132;48.770;9.200;2022-07-01T05:02:13;4.60;;;2.20;;
295;SDS011;132;48.770;9.200;2022-07-01T05:04:39;4.27;;;2.27;;
295;SDS011;132;48.770;9.200;2022-07-01T05:07:07;3.30;;;2.17;;
295;SDS011;132;48.770;9.200;2022-07-01T05:09:56;5.07;;;2.30;;
295;SDS011;132;48.770;9.200;2022-07-01T05:12:25;6.23;;;2.70;;
295;SDS011;132;48.770;9.200;2022-07-01T05:14:51;4.27;;;2.10;;
295;SDS011;132;48.770;9.200;2022-07-01T05:17:18;3.07;;;2.30;;
295;SDS011;132;48.770;9.200;2022-07-01T05:19:44;3.90;;;2.00;;
295;SDS011;132;48.770;9.200;2022-07-01T05:22:29;2.23;;;2.10;;
295;SDS011;132;48.770;9.200;2022-07-01T05:24:55;3.80;;;2.50;;
295;SDS011;132;48.770;9.200;2022-07-01T05:27:22;2.80;;;2.37;;
295;SDS011;132;48.770;9.200;2022-07-01T05:29:50;4.80;;;2.77;;
295;SDS011;132;48.770;9.200;2022-07-01T05:32:16;4.13;;;2.47;;
295;SDS011;132;48.770;9.200;2022-07-01T05:34:43;12.40;;;3.17;;
295;SDS011;132;48.770;9.200;2022-07-01T05:37:10;2.67;;;2.50;;
295;SDS011;132;48.770;9.200;2022-07-01T05:39:37;3.53;;;2.53;;
295;SDS011;132;48.770;9.200;2022-07-01T05:42:03;7.17;;;2.77;;
295;SDS011;132;48.770;9.200;2022-07-01T05:44:30;4.33;;;2.90;;
295;SDS011;132;48.770;9.200;2022-07-01T05:46:56;6.00;;;2.47;;
295;SDS011;132;48.770;9.200;2022-07-01T05:49:22;2.97;;;2.70;;
295;SDS011;132;48.770;9.200;2022-07-01T05:51:49;3.93;;;2.90;;
295;SDS011;132;48.770;9.200;2022-07-01T05:54:15;3.70;;;2.93;;
295;SDS011;132;48.770;9.200;2022-07-01T05:56:42;4.93;;;3.20;;
295;SDS011;132;48.770;9.200;2022-07-01T05:59:08;3.63;;;2.70;;
295;SDS011;132;48.770;9.200;2022-07-01T06:01:34;4.70;;;3.10;;
295;SDS011;132;48.770;9.200;2022-07-01T06:04:01;10.13;;;3.20;;
295;SDS011;132;48.770;9.200;2022-07-01T06:06:28;6.00;;;3.37;;
295;SDS011;132;48.770;9.200;2022-07-01T06:08:55;4.43;;;3.33;;
295;SDS011;132;48.770;9.200;2022-07-01T06:11:21;4.37;;;3.00;;
295;SDS011;132;48.770;9.200;2022-07-01T06:13:48;3.70;;;3.20;;
295;SDS011;132;48.770;9.200;2022-07-01T06:16:14;6.57;;;3.77;;
295;SDS011;132;48.770;9.200;2022-07-01T06:18:41;4.63;;;3.90;;
295;SDS011;132;48.770;9.200;2022-07-01T06:21:07;5.50;;;3.90;;
295;SDS011;132;48.770;9.200;2022-07-01T06:23:33;6.50;;;4.00;;
295;SDS011;132;48.770;9.200;2022-07-01T06:26:00;6.93;;;3.67;;
295;SDS011;132;48.770;9.200;2022-07-01T06:28:26;7.73;;;3.77;;
295;SDS011;132;48.770;9.200;2022-07-01T06:30:56;5.63;;;3.87;;
295;SDS011;132;48.770;9.200;2022-07-01T06:33:23;6.27;;;3.90;;
295;SDS011;132;48.770;9.200;2022-07-01T06:35:49;4.57;;;3.63;;
295;SDS011;132;48.770;9.200;2022-07-01T06:38:16;4.33;;;3.20;;
295;SDS011;132;48.770;9.200;2022-07-01T06:40:43;7.57;;;3.57;;
295;SDS011;132;48.770;9.200;2022-07-01T06:43:29;6.97;;;3.27;;
295;SDS011;132;48.770;9.200;2022-07-01T06:45:55;4.87;;;3.37;;
295;SDS011;132;48.770;9.200;2022-07-01T06:48:22;4.20;;;3.50;;
295;SDS011;132;48.770;9.200;2022-07-01T06:50:48;4.87;;;3.53;;
295;SDS011;132;48.770;9.200;2022-07-01T06:53:15;5.77;;;3.10;;
295;SDS011;132;48.770;9.200;2022-07-01T06:55:41;6.00;;;3.90;;
295;SDS011;132;48.770;9.200;2022-07-01T06:58:07;5.03;;;3.50;;
295;SDS011;132;48.770;9.200;2022-07-01T07:00:35;4.73;;;3.10;;
295;SDS011;132;48.770;9.200;2022-07-01T07:03:02;6.00;;;3.33;;
295;SDS011;132;48.770;9.200;2022-07-01T07:05:29;3.73;;;3.00;;
295;SDS011;132;48.770;9.200;2022-07-01T07:07:58;4.20;;;3.07;;
295;SDS011;132;48.770;9.200;2022-07-01T07:10:25;4.57;;;3.23;;
295;SDS011;132;48.770;9.200;2022-07-01T07:12:51;6.07;;;3.50;;
295;SDS011;132;48.770;9.200;2022-07-01T07:15:17;3.97;;;2.90;;
295;SDS011;132;48.770;9.200;2022-07-01T07:17:45;3.67;;;2.77;;
295;SDS011;132;48.770;9.200;2022-07-01T07:20:11;3.40;;;2.67;;
295;SDS011;132;48.770;9.200;2022-07-01T07:22:38;7.87;;;3.20;;
295;SDS011;132;48.770;9.200;2022-07-01T07:25:04;6.50;;;2.50;;
295;SDS011;132;48.770;9.200;2022-07-01T07:27:31;4.10;;;2.70;;
295;SDS011;132;48.770;9.200;2022-07-01T07:29:57;2.97;;;2.53;;
295;SDS011;132;48.770;9.200;2022-07-01T07:32:24;4.73;;;2.50;;
295;SDS011;132;48.770;9.200;2022-07-01T07:34:50;3.03;;;2.53;;
295;SDS011;132;48.770;9.200;2022-07-01T07:37:16;3.10;;;2.67;;
295;SDS011;132;48.770;9.200;2022-07-01T07:39:43;4.27;;;2.80;;
295;SDS011;132;48.770;9.200;2022-07-01T07:42:09;3.53;;;2.67;;
295;SDS011;132;48.770;9.200;2022-07-01T07:44:36;8.10;;;3.20;;
295;SDS011;132;48.770;9.200;2022-07-01T07:47:03;3.77;;;2.67;;
295;SDS011;132;48.770;9.200;2022-07-01T07:49:29;7.20;;;2.70;;
295;SDS011;132;48.770;9.200;2022-07-01T07:51:55;5.77;;;3.30;;
295;SDS011;132;48.770;9.200;2022-07-01T07:54:22;4.53;;;3.00;;
295;SDS011;132;48.770;9.200;2022-07-01T07:56:49;4.67;;;2.93;;
295;SDS011;132;48.770;9.200;2022-07-01T07:59:15;3.13;;;2.60;;
295;SDS011;132;48.770;9.200;2022-07-01T08:01:42;3.83;;;3.00;;
295;SDS011;132;48.770;9.200;2022-07-01T08:04:08;6.23;;;3.30;;
295;SDS011;132;48.770;9.200;2022-07-01T08:06:34;5.00;;;3.10;;
295;SDS011;132;48.770;9.200;2022-07-01T08:09:02;4.40;;;3.07;;
295;SDS011;132;48.770;9.200;2022-07-01T08:11:29;4.83;;;3.40;;
295;SDS011;132;48.770;9.200;2022-07-01T08:13:55;7.27;;;3.30;;
295;SDS011;132;48.770;9.200;2022-07-01T08:16:21;4.80;;;2.93;;
295;SDS011;132;48.770;9.200;2022-07-01T08:18:48;5.30;;;3.40;;
295;SDS011;132;48.770;9.200;2022-07-01T08:21:14;7.80;;;3.80;;
295;SDS011;132;48.770;9.200;2022-07-01T08:23:41;3.80;;;3.00;;
295;SDS011;132;48.770;9.200;2022-07-01T08:26:07;4.60;;;3.20;;
295;SDS011;132;48.770;9.200;2022-07-01T08:28:34;4.23;;;3.27;;
295;SDS011;132;48.770;9.200;2022-07-01T08:31:00;9.23;;;3.20;;
295;SDS011;132;48.770;9.200;2022-07-01T08:33:27;5.20;;;2.97;;
295;SDS011;132;48.770;9.200;2022-07-01T08:35:53;4.20;;;2.80;;
295;SDS011;132;48.770;9.200;2022-07-01T08:38:19;4.67;;;3.27;;
295;SDS011;132;48.770;9.200;2022-07-01T08:40:46;6.90;;;3.10;;
295;SDS011;132;48.770;9.200;2022-07-01T08:43:12;4.27;;;2.83;;
295;SDS011;132;48.770;9.200;2022-07-01T08:45:39;4.83;;;2.80;;
295;SDS011;132;48.770;9.200;2022-07-01T08:48:05;3.47;;;2.50;;
295;SDS011;132;48.770;9.200;2022-07-01T08:50:36;3.00;;;2.77;;
295;SDS011;132;48.770;9.200;2022-07-01T08:53:05;3.40;;;2.80;;
295;SDS011;132;48.770;9.200;2022-07-01T08:55:33;3.30;;;2.70;;
295;SDS011;132;48.770;9.200;2022-07-01T08:58:23;5.93;;;2.67;;
295;SDS011;132;48.770;9.200;2022-07-01T09:00:51;7.30;;;3.33;;
295;SDS011;132;48.770;9.200;2022-07-01T09:03:21;3.90;;;2.93;;
295;SDS011;132;48.770;9.200;2022-07-01T09:05:51;4.80;;;3.00;;
295;SDS011;132;48.770;9.200;2022-07-01T09:08:18;3.60;;;2.97;;
295;SDS011;132;48.770;9.200;2022-07-01T09:10:45;3.87;;;2.93;;
295;SDS011;132;48.770;9.200;2022-07-01T09:13:12;3.87;;;2.70;;
295;SDS011;132;48.770;9.200;2022-07-01T09:15:40;5.50;;;3.20;;
295;SDS011;132;48.770;9.200;2022-07-01T09:18:11;5.20;;;3.07;;
295;SDS011;132;48.770;9.200;2022-07-01T09:20:40;4.70;;;3.00;;
295;SDS011;132;48.770;9.200;2022-07-01T09:23:08;4.00;;;2.80;;
295;SDS011;132;48.770;9.200;2022-07-01T09:25:40;5.30;;;3.10;;
295;SDS011;132;48.770;9.200;2022-07-01T09:28:12;3.97;;;2.87;;
295;SDS011;132;48.770;9.200;2022-07-01T09:30:44;4.20;;;3.37;;
295;SDS011;132;48.770;9.200;2022-07-01T09:33:13;4.93;;;2.90;;
295;SDS011;132;48.770;9.200;2022-07-01T09:35:42;3.47;;;3.00;;
295;SDS011;132;48.770;9.200;2022-07-01T09:38:11;5.20;;;3.57;;
295;SDS011;132;48.770;9.200;2022-07-01T09:40:55;3.93;;;3.10;;
295;SDS011;132;48.770;9.200;2022-07-01T09:43:24;6.90;;;3.37;;
295;SDS011;132;48.770;9.200;2022-07-01T09:46:08;8.23;;;3.20;;
295;SDS011;132;48.770;9.200;2022-07-01T09:51:03;4.30;;;3.43;;
295;SDS011;132;48.770;9.200;2022-07-01T09:53:31;16.03;;;3.20;;
295;SDS011;132;48.770;9.200;2022-07-01T09:55:58;3.87;;;2.90;;
295;SDS011;132;48.770;9.200;2022-07-01T09:58:25;3.77;;;2.53;;
295;SDS011;132;48.770;9.200;2022-07-01T10:00:52;9.77;;;5.10;;
295;SDS011;132;48.770;9.200;2022-07-01T10:03:20;5.10;;;3.87;;
295;SDS011;132;48.770;9.200;2022-07-01T10:05:54;5.73;;;3.40;;
295;SDS011;132;48.770;9.200;2022-07-01T10:14:03;4.60;;;2.90;;
295;SDS011;132;48.770;9.200;2022-07-01T10:16:32;3.40;;;2.80;;
295;SDS011;132;48.770;9.200;2022-07-01T10:19:05;6.70;;;3.03;;
295;SDS011;132;48.770;9.200;2022-07-01T10:21:52;5.80;;;3.20;;
295;SDS011;132;48.770;9.200;2022-07-01T10:24:25;4.40;;;3.03;;
295;SDS011;132;48.770;9.200;2022-07-01T10:27:00;4.00;;;3.17;;
295;SDS011;132;48.770;9.200;2022-07-01T10:29:33;7.77;;;3.20;;
295;SDS011;132;48.770;9.200;2022-07-01T10:32:02;3.90;;;3.37;;
295;SDS011;132;48.770;9.200;2022-07-01T10:34:33;7.77;;;3.87;;
295;SDS011;132;48.770;9.200;2022-07-01T10:37:05;3.50;;;3.10;;
295;SDS011;132;48.770;9.200;2022-07-01T10:42:19;3.63;;;2.97;;
295;SDS011;132;48.770;9.200;2022-07-01T10:44:59;4.70;;;3.37;;
295;SDS011;132;48.770;9.200;2022-07-01T10:47:29;4.47;;;3.60;;
295;SDS011;132;48.770;9.200;2022-07-01T10:49:57;4.80;;;4.50;;
295;SDS011;132;48.770;9.200;2022-07-01T10:52:30;4.20;;;3.20;;
295;SDS011;132;48.770;9.200;2022-07-01T10:54:57;5.33;;;2.90;;
295;SDS011;132;48.770;9.200;2022-07-01T10:57:26;5.10;;;2.70;;
295;SDS011;132;48.770;9.200;2022-07-01T11:02:28;6.47;;;2.53;;
295;SDS011;132;48.770;9.200;2022-07-01T11:04:57;4.07;;;2.50;;
295;SDS011;132;48.770;9.200;2022-07-01T11:07:29;4.10;;;2.70;;
295;SDS011;132;48.770;9.200;2022-07-01T11:09:58;7.50;;;2.70;;
295;SDS011;132;48.770;9.200;2022-07-01T11:12:26;3.23;;;2.60;;
295;SDS011;132;48.770;9.200;2022-07-01T11:14:54;3.03;;;2.70;;
295;SDS011;132;48.770;9.200;2022-07-01T11:17:23;4.40;;;3.00;;
295;SDS011;132;48.770;9.200;2022-07-01T11:19:53;3.47;;;2.40;;
295;SDS011;132;48.770;9.200;2022-07-01T11:22:24;2.70;;;2.30;;
295;SDS011;132;48.770;9.200;2022-07-01T11:24:53;2.90;;;2.40;;
295;SDS011;132;48.770;9.200;2022-07-01T11:27:20;3.30;;;2.47;;
295;SDS011;132;48.770;9.200;2022-07-01T11:29:54;4.40;;;2.90;;
295;SDS011;132;48.770;9.200;2022-07-01T11:32:23;4.63;;;2.60;;
295;SDS011;132;48.770;9.200;2022-07-01T11:34:54;7.03;;;2.50;;
295;SDS011;132;48.770;9.200;2022-07-01T11:37:21;2.40;;;2.20;;
295;SDS011;132;48.770;9.200;2022-07-01T11:40:11;5.47;;;2.70;;
295;SDS011;132;48.770;9.200;2022-07-01T11:42:39;4.30;;;3.10;;
295;SDS011;132;48.770;9.200;2022-07-01T11:45:06;3.20;;;2.70;;
295;SDS011;132;48.770;9.200;2022-07-01T11:47:33;4.47;;;3.23;;
295;SDS011;132;48.770;9.200;2022-07-01T11:50:00;4.57;;;4.27;;
295;SDS011;132;48.770;9.200;2022-07-01T11:52:27;3.70;;;3.50;;
295;SDS011;132;48.770;9.200;2022-07-01T11:54:54;2.90;;;2.70;;
295;SDS011;132;48.770;9.200;2022-07-01T11:57:24;3.93;;;3.63;;
295;SDS011;132;48.770;9.200;2022-07-01T11:59:53;5.83;;;3.53;;
295;SDS011;132;48.770;9.200;2022-07-01T12:02:22;3.70;;;3.47;;
295;SDS011;132;48.770;9.200;2022-07-01T12:04:49;4.33;;;3.80;;
295;SDS011;132;48.770;9.200;2022-07-01T12:07:19;5.70;;;5.40;;
295;SDS011;132;48.770;9.200;2022-07-01T12:09:50;4.90;;;4.60;;
295;SDS011;132;48.770;9.200;2022-07-01T12:12:17;5.80;;;5.50;;
295;SDS011;132;48.770;9.200;2022-07-01T12:14:52;5.00;;;4.70;;
295;SDS011;132;48.770;9.200;2022-07-01T12:17:22;4.60;;;4.30;;
295;SDS011;132;48.770;9.200;2022-07-01T12:19:50;4.60;;;4.30;;
295;SDS011;132;48.770;9.200;2022-07-01T12:22:18;4.60;;;4.30;;
295;SDS011;132;48.770;9.200;2022-07-01T12:24:52;5.60;;;5.30;;
295;SDS011;132;48.770;9.200;2022-07-01T12:27:32;9.10;;;8.60;;
295;SDS011;132;48.770;9.200;2022-07-01T12:29:59;5.30;;;5.00;;
295;SDS011;132;48.770;9.200;2022-07-01T12:32:26;4.70;;;4.40;;
295;SDS011;132;48.770;9.200;2022-07-01T12:34:55;4.43;;;2.77;;
295;SDS011;132;48.770;9.200;2022-07-01T12:37:51;4.23;;;2.63;;
295;SDS011;132;48.770;9.200;2022-07-01T12:40:22;2.20;;;2.00;;
295;SDS011;132;48.770;9.200;2022-07-01T12:42:50;2.93;;;2.20;;
295;SDS011;132;48.770;9.200;2022-07-01T12:45:21;2.77;;;2.37;;
295;SDS011;132;48.770;9.200;2022-07-01T12:47:50;2.50;;;2.30;;
295;SDS011;132;48.770;9.200;2022-07-01T12:50:30;2.70;;;2.40;;
295;SDS011;132;48.770;9.200;2022-07-01T12:53:06;3.07;;;2.73;;
295;SDS011;132;48.770;9.200;2022-07-01T12:55:35;5.73;;;3.00;;
295;SDS011;132;48.770;9.200;2022-07-01T12:58:10;2.80;;;2.57;;
295;SDS011;132;48.770;9.200;2022-07-01T13:00:39;6.87;;;2.77;;
295;SDS011;132;48.770;9.200;2022-07-01T13:03:07;3.00;;;2.50;;
295;SDS011;132;48.770;9.200;2022-07-01T13:05:35;5.70;;;3.57;;
295;SDS011;132;48.770;9.200;2022-07-01T13:08:04;4.00;;;3.27;;
295;SDS011;132;48.770;9.200;2022-07-01T13:10:31;7.73;;;3.57;;
295;SDS011;132;48.770;9.200;2022-07-01T13:12:58;4.37;;;3.20;;
295;SDS011;132;48.770;9.200;2022-07-01T13:15:25;7.07;;;3.60;;
295;SDS011;132;48.770;9.200;2022-07-01T13:17:52;4.37;;;3.23;;
295;SDS011;132;48.770;9.200;2022-07-01T13:20:19;6.37;;;3.90;;
295;SDS011;132;48.770;9.200;2022-07-01T13:22:45;4.40;;;4.00;;
295;SDS011;132;48.770;9.200;2022-07-01T13:25:12;4.77;;;4.30;;
295;SDS011;132;48.770;9.200;2022-07-01T13:27:39;6.43;;;4.47;;
295;SDS011;132;48.770;9.200;2022-07-01T13:30:06;5.87;;;4.80;;
295;SDS011;132;48.770;9.200;2022-07-01T13:32:34;8.27;;;7.73;;
295;SDS011;132;48.770;9.200;2022-07-01T13:35:01;9.83;;;9.33;;
295;SDS011;132;48.770;9.200;2022-07-01T13:37:28;13.53;;;12.83;;
295;SDS011;132;48.770;9.200;2022-07-01T13:39:55;7.03;;;6.63;;
295;SDS011;132;48.770;9.200;2022-07-01T13:42:21;8.43;;;7.97;;
295;SDS011;132;48.770;9.200;2022-07-01T13:44:48;42.40;;;40.33;;
295;SDS011;132;48.770;9.200;2022-07-01T13:47:16;5.70;;;5.00;;
295;SDS011;132;48.770;9.200;2022-07-01T13:49:43;1094.70;;;999.90;;
295;SDS011;132;48.770;9.200;2022-07-01T13:52:10;432.07;;;411.43;;
295;SDS011;132;48.770;9.200;2022-07-01T13:54:37;14.33;;;13.60;;
295;SDS011;132;48.770;9.200;2022-07-01T13:57:03;36.20;;;34.43;;
295;SDS011;132;48.770;9.200;2022-07-01T13:59:30;8.63;;;8.13;;
295;SDS011;132;48.770;9.200;2022-07-01T14:01:57;6.83;;;4.73;;
295;SDS011;132;48.770;9.200;2022-07-01T14:04:24;3.60;;;3.40;;
295;SDS011;132;48.770;9.200;2022-07-01T14:06:50;3.27;;;3.07;;
295;SDS011;132;48.770;9.200;2022-07-01T14:09:17;5.87;;;3.20;;
295;SDS011;132;48.770;9.200;2022-07-01T14:11:43;7.50;;;3.10;;
295;SDS011;132;48.770;9.200;2022-07-01T14:14:11;6.50;;;2.97;;
295;SDS011;132;48.770;9.200;2022-07-01T14:16:37;4.37;;;2.50;;
295;SDS011;132;48.770;9.200;2022-07-01T14:19:04;3.60;;;2.70;;
295;SDS011;132;48.770;9.200;2022-07-01T14:21:30;4.90;;;3.40;;
295;SDS011;132;48.770;9.200;2022-07-01T14:23:57;10.10;;;9.60;;
295;SDS011;132;48.770;9.200;2022-07-01T14:26:23;1029.90;;;980.80;;
295;SDS011;132;48.770;9.200;2022-07-01T14:28:49;1041.10;;;991.50;;
295;SDS011;132;48.770;9.200;2022-07-01T14:31:16;1035.40;;;986.03;;
295;SDS011;132;48.770;9.200;2022-07-01T14:33:42;1047.97;;;997.53;;
295;SDS011;132;48.770;9.200;2022-07-01T14:36:09;1063.87;;;999.90;;
295;SDS011;132;48.770;9.200;2022-07-01T14:38:35;1078.60;;;999.90;;
295;SDS011;132;48.770;9.200;2022-07-01T14:41:02;1081.47;;;999.90;;
295;SDS011;132;48.770;9.200;2022-07-01T14:43:28;1093.50;;;999.90;;
295;SDS011;132;48.770;9.200;2022-07-01T14:45:55;1071.47;;;999.90;;
295;SDS011;132;48.770;9.200;2022-07-01T14:48:22;1075.43;;;999.90;;
295;SDS011;132;48.770;9.200;2022-07-01T14:50:48;1079.17;;;999.90;;
295;SDS011;132;48.770;9.200;2022-07-01T14:53:15;1078.10;;;999.90;;
295;SDS011;132;48.770;9.200;2022-07-01T14:55:42;1070.40;;;999.90;;
295;SDS011;132;48.770;9.200;2022-07-01T14:58:09;1071.87;;;999.90;;
295;SDS011;132;48.770;9.200;2022-07-01T15:00:35;1064.63;;;999.90;;
295;SDS011;132;48.770;9.200;2022-07-01T15:03:05;1074.73;;;999.90;;
295;SDS011;132;48.770;9.200;2022-07-01T15:05:34;1073.57;;;999.90;;
295;SDS011;132;48.770;9.200;2022-07-01T15:08:00;1060.93;;;999.90;;
295;SDS011;132;48.770;9.200;2022-07-01T15:10:27;1060.30;;;999.90;;
295;SDS011;132;48.770;9.200;2022-07-01T15:12:53;1061.50;;;999.90;;
295;SDS011;132;48.770;9.200;2022-07-01T15:15:20;1071.53;;;999.90;;
295;SDS011;132;48.770;9.200;2022-07-01T15:17:46;159.40;;;151.77;;
295;SDS011;132;48.770;9.200;2022-07-01T15:20:13;1050.17;;;999.07;;
295;SDS011;132;48.770;9.200;2022-07-01T15:22:42;992.77;;;945.43;;
295;SDS011;132;48.770;9.200;2022-07-01T15:25:09;1022.20;;;973.47;;
295;SDS011;132;48.770;9.200;2022-07-01T15:27:36;1046.73;;;996.83;;
295;SDS011;132;48.770;9.200;2022-07-01T15:30:02;929.23;;;884.90;;
295;SDS011;132;48.770;9.200;2022-07-01T15:32:32;969.77;;;923.53;;
295;SDS011;132;48.770;9.200;2022-07-01T15:34:59;862.50;;;821.37;;
295;SDS011;132;48.770;9.200;2022-07-01T15:37:25;1045.33;;;995.50;;
295;SDS011;132;48.770;9.200;2022-07-01T15:39:52;1030.07;;;980.93;;
295;SDS011;132;48.770;9.200;2022-07-01T15:42:18;1040.13;;;990.57;;
295;SDS011;132;48.770;9.200;2022-07-01T15:44:45;1014.87;;;966.50;;
295;SDS011;132;48.770;9.200;2022-07-01T15:47:11;755.30;;;719.30;;
295;SDS011;132;48.770;9.200;2022-07-01T15:49:56;877.07;;;835.27;;
295;SDS011;132;48.770;9.200;2022-07-01T15:52:23;988.83;;;941.70;;
295;SDS011;132;48.770;9.200;2022-07-01T15:54:49;969.40;;;923.20;;